createdAt,value
2018-04-07T00:00:10.715Z,15.82
2018-04-07T00:02:37.099Z,14.15
2018-04-07T00:05:03.661Z,14.85
2018-04-07T00:07:30.823Z,13.10
2018-04-07T00:09:57.201Z,17.35
2018-04-07T00:12:23.614Z,18.33
2018-04-07T00:14:49.998Z,14.80
2018-04-07T00:17:17.138Z,16.85
2018-04-07T00:19:44.353Z,13.15
2018-04-07T00:22:11.783Z,12.25
2018-04-07T00:24:38.178Z,12.45
2018-04-07T00:27:04.599Z,17.62
2018-04-07T00:29:32.096Z,13.85
2018-04-07T00:31:58.503Z,12.90
2018-04-07T00:34:25.614Z,14.38
2018-04-07T00:36:53.043Z,15.05
2018-04-07T00:39:20.435Z,17.45
2018-04-07T00:41:46.798Z,19.17
2018-04-07T00:44:13.943Z,17.17
2018-04-07T00:46:40.315Z,17.20
2018-04-07T00:49:06.746Z,14.35
2018-04-07T00:51:33.264Z,17.52
2018-04-07T00:54:00.382Z,14.57
2018-04-07T00:56:26.862Z,14.65
2018-04-07T00:58:53.322Z,15.93
2018-04-07T01:01:20.314Z,15.50
2018-04-07T01:03:47.495Z,15.73
2018-04-07T01:06:14.522Z,14.80
2018-04-07T01:08:40.903Z,20.58
2018-04-07T01:11:07.275Z,15.57
2018-04-07T01:13:34.455Z,13.80
2018-04-07T01:16:00.846Z,18.00
2018-04-07T01:18:28.002Z,19.70
2018-04-07T01:20:55.118Z,15.55
2018-04-07T01:23:21.514Z,21.05
2018-04-07T01:25:47.907Z,18.62
2018-04-07T01:28:14.297Z,17.70
2018-04-07T01:30:41.459Z,17.08
2018-04-07T01:33:07.867Z,17.05
2018-04-07T01:35:34.278Z,19.08
2018-04-07T01:38:01.394Z,16.80
2018-04-07T01:40:27.804Z,16.87
2018-04-07T01:42:54.178Z,16.67
2018-04-07T01:45:22.351Z,19.98
2018-04-07T01:47:48.755Z,19.30
2018-04-07T01:50:15.115Z,18.27
2018-04-07T01:52:42.291Z,18.02
2018-04-07T01:55:08.759Z,20.05
2018-04-07T01:57:35.269Z,20.35
2018-04-07T02:00:01.669Z,21.58
2018-04-07T02:02:28.850Z,17.95
2018-04-07T02:04:55.191Z,19.15
2018-04-07T02:07:21.458Z,21.83
2018-04-07T02:09:47.765Z,20.75
2018-04-07T02:12:14.055Z,18.60
2018-04-07T02:14:41.080Z,16.67
2018-04-07T02:17:07.394Z,19.08
2018-04-07T02:19:33.670Z,20.65
2018-04-07T02:22:00.853Z,20.12
2018-04-07T02:24:27.134Z,18.87
2018-04-07T02:26:53.428Z,17.25
2018-04-07T02:29:19.730Z,23.50
2018-04-07T02:31:46.030Z,24.27
2018-04-07T02:34:13.070Z,20.77
2018-04-07T02:36:40.090Z,19.10
2018-04-07T02:39:06.438Z,19.75
2018-04-07T02:41:35.802Z,14.73
2018-04-07T02:44:02.125Z,17.77
2018-04-07T02:46:28.443Z,20.17
2018-04-07T02:48:54.788Z,19.10
2018-04-07T02:51:21.124Z,17.33
2018-04-07T02:53:47.399Z,20.12
2018-04-07T02:56:13.718Z,19.25
2018-04-07T02:58:40.020Z,21.98
2018-04-07T03:01:06.336Z,18.67
2018-04-07T03:03:33.219Z,21.40
2018-04-07T03:05:59.537Z,16.80
2018-04-07T03:08:25.847Z,20.75
2018-04-07T03:10:52.138Z,17.17
2018-04-07T03:13:20.218Z,20.77
2018-04-07T03:15:47.230Z,19.05
2018-04-07T03:18:13.586Z,17.62
2018-04-07T03:20:40.595Z,22.20
2018-04-07T03:23:06.932Z,19.33
2018-04-07T03:25:33.231Z,21.60
2018-04-07T03:27:59.506Z,23.42
2018-04-07T03:30:25.803Z,21.45
2018-04-07T03:32:52.110Z,17.50
2018-04-07T03:35:19.418Z,19.10
2018-04-07T03:37:45.716Z,19.77
2018-04-07T03:40:12.022Z,18.73
2018-04-07T03:42:39.375Z,21.08
2018-04-07T03:45:05.674Z,18.23
2018-04-07T03:47:32.719Z,21.67
2018-04-07T03:49:59.017Z,20.12
2018-04-07T03:52:25.326Z,20.65
2018-04-07T03:54:51.628Z,23.45
2018-04-07T03:57:18.650Z,24.17
2018-04-07T03:59:44.978Z,18.83
2018-04-07T04:02:11.259Z,20.25
2018-04-07T04:04:37.570Z,19.83
2018-04-07T04:07:04.592Z,24.90
2018-04-07T04:09:31.654Z,24.70
2018-04-07T04:11:58.686Z,20.75
2018-04-07T04:14:24.991Z,23.40
2018-04-07T04:16:51.305Z,26.23
2018-04-07T04:19:17.578Z,22.55
2018-04-07T04:21:43.894Z,24.63
2018-04-07T04:24:10.182Z,29.35
2018-04-07T04:26:37.194Z,24.15
2018-04-07T04:29:04.241Z,22.73
2018-04-07T04:31:31.292Z,23.75
2018-04-07T04:33:58.314Z,20.95
2018-04-07T04:36:24.653Z,24.52
2018-04-07T04:38:50.994Z,21.62
2018-04-07T04:41:17.286Z,28.00
2018-04-07T04:43:43.609Z,27.35
2018-04-07T04:46:09.906Z,21.12
2018-04-07T04:48:37.289Z,20.75
2018-04-07T04:51:03.594Z,21.80
2018-04-07T04:53:29.901Z,22.05
2018-04-07T04:55:56.950Z,26.12
2018-04-07T04:58:24.985Z,21.37
2018-04-07T05:00:51.278Z,20.45
2018-04-07T05:03:17.571Z,21.45
2018-04-07T05:05:43.868Z,24.75
2018-04-07T05:08:10.175Z,22.17
2018-04-07T05:10:36.498Z,23.10
2018-04-07T05:13:02.823Z,20.27
2018-04-07T05:15:29.119Z,22.13
2018-04-07T05:17:57.262Z,23.52
2018-04-07T05:20:23.644Z,25.83
2018-04-07T05:22:49.962Z,15.98
2018-04-07T05:25:19.690Z,20.30
2018-04-07T05:27:46.751Z,21.37
2018-04-07T05:30:13.071Z,19.12
2018-04-07T05:32:39.478Z,17.25
2018-04-07T05:35:05.759Z,23.30
2018-04-07T05:37:32.067Z,20.27
2018-04-07T05:39:58.354Z,19.70
2018-04-07T05:42:24.691Z,19.30
2018-04-07T05:44:51.046Z,16.62
2018-04-07T05:47:17.452Z,18.17
2018-04-07T05:49:44.722Z,21.92
2018-04-07T05:52:11.014Z,19.73
2018-04-07T05:54:37.326Z,17.95
2018-04-07T05:57:03.638Z,16.10
2018-04-07T05:59:30.117Z,15.35
2018-04-07T06:01:56.440Z,15.43
2018-04-07T06:04:22.803Z,17.10
2018-04-07T06:06:49.094Z,12.77
2018-04-07T06:09:16.923Z,17.00
2018-04-07T06:11:44.973Z,16.17
2018-04-07T06:14:11.304Z,16.87
2018-04-07T06:16:38.592Z,14.50
2018-04-07T06:19:04.902Z,13.23
2018-04-07T06:21:31.959Z,15.10
2018-04-07T06:23:58.986Z,14.27
2018-04-07T06:26:25.263Z,16.48
2018-04-07T06:28:51.569Z,14.20
2018-04-07T06:31:17.891Z,12.10
2018-04-07T06:33:44.936Z,13.07
2018-04-07T06:36:12.123Z,13.30
2018-04-07T06:38:38.403Z,12.35
2018-04-07T06:41:04.727Z,15.73
2018-04-07T06:43:31.672Z,10.55
2018-04-07T06:45:57.952Z,9.98
2018-04-07T06:48:25.295Z,13.90
2018-04-07T06:50:51.611Z,13.10
2018-04-07T06:53:17.918Z,11.35
2018-04-07T06:55:44.207Z,11.25
2018-04-07T06:58:10.506Z,13.05
2018-04-07T07:00:36.839Z,11.07
2018-04-07T07:03:03.874Z,11.75
2018-04-07T07:05:30.952Z,10.95
2018-04-07T07:07:57.246Z,11.40
2018-04-07T07:10:24.295Z,11.35
2018-04-07T07:12:52.125Z,9.00
2018-04-07T07:15:18.446Z,11.23
2018-04-07T07:17:44.734Z,10.90
2018-04-07T07:20:11.031Z,11.80
2018-04-07T07:22:37.345Z,9.65
2018-04-07T07:25:03.682Z,12.15
2018-04-07T07:27:30.019Z,10.77
2018-04-07T07:29:56.322Z,9.53
2018-04-07T07:32:22.598Z,10.97
2018-04-07T07:34:49.634Z,10.43
2018-04-07T07:37:16.683Z,10.30
2018-04-07T07:39:43.730Z,9.60
2018-04-07T07:42:10.053Z,10.03
2018-04-07T07:44:36.322Z,7.53
2018-04-07T07:47:02.599Z,10.00
2018-04-07T07:49:29.331Z,7.73
2018-04-07T07:51:55.635Z,9.50
2018-04-07T07:54:21.930Z,8.90
2018-04-07T07:56:49.063Z,8.73
2018-04-07T07:59:15.561Z,6.50
2018-04-07T08:01:41.911Z,7.83
2018-04-07T08:04:08.246Z,6.60
2018-04-07T08:06:35.060Z,6.83
2018-04-07T08:09:01.399Z,5.57
2018-04-07T08:11:27.835Z,5.60
2018-04-07T08:13:54.350Z,4.40
2018-04-07T08:16:21.771Z,5.67
2018-04-07T08:18:49.828Z,5.40
2018-04-07T08:21:16.122Z,4.63
2018-04-07T08:23:42.403Z,5.07
2018-04-07T08:26:10.551Z,5.13
2018-04-07T08:28:38.187Z,7.07
2018-04-07T08:31:04.528Z,8.07
2018-04-07T08:33:30.834Z,5.30
2018-04-07T08:35:58.166Z,4.90
2018-04-07T08:38:26.267Z,5.50
2018-04-07T08:40:52.598Z,5.20
2018-04-07T08:43:18.892Z,5.23
2018-04-07T08:45:46.982Z,3.33
2018-04-07T08:48:14.900Z,3.57
2018-04-07T08:50:41.724Z,3.30
2018-04-07T08:53:08.029Z,3.70
2018-04-07T08:55:34.347Z,4.67
2018-04-07T08:58:00.653Z,3.70
2018-04-07T09:00:27.686Z,3.57
2018-04-07T09:02:53.986Z,2.73
2018-04-07T09:05:20.310Z,2.80
2018-04-07T09:07:46.590Z,2.90
2018-04-07T09:10:13.650Z,4.60
2018-04-07T09:12:40.666Z,3.77
2018-04-07T09:15:06.946Z,4.57
2018-04-07T09:17:33.257Z,3.03
2018-04-07T09:20:00.303Z,4.57
2018-04-07T09:22:27.330Z,4.43
2018-04-07T09:24:53.634Z,3.27
2018-04-07T09:27:19.934Z,5.23
2018-04-07T09:29:46.276Z,2.97
2018-04-07T09:32:12.547Z,6.47
2018-04-07T09:34:39.730Z,2.83
2018-04-07T09:37:06.754Z,3.10
2018-04-07T09:39:33.790Z,3.33
2018-04-07T09:42:00.100Z,2.37
2018-04-07T09:44:26.427Z,4.03
2018-04-07T09:46:52.690Z,2.87
2018-04-07T09:49:19.760Z,3.50
2018-04-07T09:51:47.126Z,4.50
2018-04-07T09:54:13.434Z,3.30
2018-04-07T09:56:39.726Z,3.40
2018-04-07T09:59:06.063Z,2.37
2018-04-07T10:01:32.387Z,3.13
2018-04-07T10:03:58.669Z,2.83
2018-04-07T10:06:25.710Z,4.33
2018-04-07T10:08:52.742Z,3.83
2018-04-07T10:11:20.550Z,2.77
2018-04-07T10:13:46.872Z,5.23
2018-04-07T10:16:13.910Z,3.63
2018-04-07T10:18:40.943Z,2.90
2018-04-07T10:21:07.991Z,3.47
2018-04-07T10:23:35.057Z,3.10
2018-04-07T10:26:02.117Z,4.03
2018-04-07T10:28:28.456Z,2.80
2018-04-07T10:30:54.787Z,3.30
2018-04-07T10:33:21.061Z,3.30
2018-04-07T10:35:47.359Z,3.10
2018-04-07T10:38:13.644Z,2.57
2018-04-07T10:40:40.679Z,2.83
2018-04-07T10:43:06.959Z,3.90
2018-04-07T10:45:33.227Z,4.30
2018-04-07T10:48:01.011Z,2.90
2018-04-07T10:50:28.043Z,2.80
2018-04-07T10:52:54.352Z,4.43
2018-04-07T10:55:20.643Z,3.27
2018-04-07T10:57:46.923Z,2.33
2018-04-07T11:00:13.252Z,2.80
2018-04-07T11:02:40.874Z,3.80
2018-04-07T11:05:07.192Z,2.40
2018-04-07T11:07:33.462Z,2.83
2018-04-07T11:10:00.803Z,3.80
2018-04-07T11:12:27.109Z,2.40
2018-04-07T11:14:53.428Z,3.70
2018-04-07T11:17:20.496Z,2.37
2018-04-07T11:19:46.778Z,4.00
2018-04-07T11:22:13.070Z,1.77
2018-04-07T11:24:39.476Z,2.30
2018-04-07T11:27:05.754Z,2.27
2018-04-07T11:29:32.046Z,2.53
2018-04-07T11:31:58.345Z,2.30
2018-04-07T11:34:25.378Z,2.00
2018-04-07T11:36:51.996Z,3.23
2018-04-07T11:39:18.295Z,2.20
2018-04-07T11:41:44.571Z,2.80
2018-04-07T11:44:10.858Z,2.40
2018-04-07T11:46:37.146Z,2.10
2018-04-07T11:49:04.239Z,2.37
2018-04-07T11:51:30.551Z,2.97
2018-04-07T11:53:56.817Z,1.77
2018-04-07T11:56:23.117Z,2.50
2018-04-07T11:58:49.402Z,1.83
2018-04-07T12:01:15.686Z,2.40
2018-04-07T12:03:41.978Z,2.27
2018-04-07T12:06:10.798Z,2.70
2018-04-07T12:08:38.323Z,3.33
2018-04-07T12:11:04.688Z,5.60
2018-04-07T12:13:31.022Z,2.63
2018-04-07T12:15:58.357Z,1.70
2018-04-07T12:18:24.641Z,1.60
2018-04-07T12:20:51.670Z,2.90
2018-04-07T12:23:17.982Z,2.80
2018-04-07T12:25:44.286Z,3.53
2018-04-07T12:28:11.310Z,2.90
2018-04-07T12:30:37.610Z,2.80
2018-04-07T12:33:03.894Z,2.90
2018-04-07T12:35:31.770Z,3.07
2018-04-07T12:37:59.386Z,2.10
2018-04-07T12:40:25.654Z,1.90
2018-04-07T12:42:53.684Z,2.57
2018-04-07T12:45:20.979Z,2.37
2018-04-07T12:47:47.994Z,2.10
2018-04-07T12:50:14.300Z,2.63
2018-04-07T12:52:40.583Z,1.80
2018-04-07T12:55:07.630Z,1.37
2018-04-07T12:57:34.642Z,2.00
2018-04-07T13:00:00.948Z,3.60
2018-04-07T13:02:27.254Z,1.90
2018-04-07T13:04:53.559Z,1.40
2018-04-07T13:07:20.575Z,2.00
2018-04-07T13:09:46.886Z,2.07
2018-04-07T13:12:13.149Z,2.73
2018-04-07T13:14:39.426Z,4.03
2018-04-07T13:17:05.751Z,2.87
2018-04-07T13:19:32.099Z,2.40
2018-04-07T13:21:58.471Z,4.40
2018-04-07T13:24:25.507Z,9.33
2018-04-07T13:26:51.794Z,5.20
2018-04-07T13:29:18.095Z,4.73
2018-04-07T13:31:44.379Z,5.03
2018-04-07T13:34:10.770Z,5.17
2018-04-07T13:36:37.262Z,4.77
2018-04-07T13:39:05.250Z,4.93
2018-04-07T13:41:32.545Z,4.33
2018-04-07T13:43:58.859Z,4.17
2018-04-07T13:46:25.889Z,4.87
2018-04-07T13:48:52.251Z,5.50
2018-04-07T13:51:18.535Z,8.50
2018-04-07T13:53:44.863Z,7.93
2018-04-07T13:56:11.203Z,6.00
2018-04-07T13:58:38.266Z,6.63
2018-04-07T14:01:05.314Z,6.67
2018-04-07T14:03:32.359Z,5.87
2018-04-07T14:05:59.411Z,7.33
2018-04-07T14:08:26.430Z,7.00
2018-04-07T14:10:54.236Z,5.93
2018-04-07T14:13:22.258Z,6.80
2018-04-07T14:15:48.569Z,7.20
2018-04-07T14:18:14.906Z,5.37
2018-04-07T14:20:41.215Z,7.03
2018-04-07T14:23:07.754Z,6.77
2018-04-07T14:25:34.073Z,6.27
2018-04-07T14:28:00.346Z,6.93
2018-04-07T14:30:26.635Z,6.57
2018-04-07T14:32:52.940Z,6.67
2018-04-07T14:35:20.525Z,6.53
2018-04-07T14:37:47.093Z,6.23
2018-04-07T14:40:13.355Z,6.37
2018-04-07T14:42:39.667Z,6.87
2018-04-07T14:45:05.962Z,6.67
2018-04-07T14:47:32.239Z,6.53
2018-04-07T14:49:58.530Z,5.97
2018-04-07T14:52:24.814Z,7.63
2018-04-07T14:54:51.830Z,6.27
2018-04-07T14:57:18.128Z,6.00
2018-04-07T14:59:45.164Z,7.10
2018-04-07T15:02:11.445Z,6.13
2018-04-07T15:04:37.722Z,7.07
2018-04-07T15:07:04.022Z,6.03
2018-04-07T15:09:31.059Z,6.37
2018-04-07T15:11:57.350Z,7.00
2018-04-07T15:14:23.662Z,8.73
2018-04-07T15:16:49.955Z,6.20
2018-04-07T15:19:16.262Z,6.23
2018-04-07T15:21:42.542Z,5.60
2018-04-07T15:24:08.883Z,6.90
2018-04-07T15:26:35.171Z,5.40
2018-04-07T15:29:01.455Z,6.37
2018-04-07T15:31:27.754Z,5.63
2018-04-07T15:33:54.799Z,6.17
2018-04-07T15:36:21.822Z,6.70
2018-04-07T15:38:48.154Z,5.87
2018-04-07T15:41:14.426Z,7.33
2018-04-07T15:43:40.727Z,7.83
2018-04-07T15:46:08.134Z,8.00
2018-04-07T15:48:34.506Z,7.50
2018-04-07T15:51:00.816Z,6.80
2018-04-07T15:53:27.109Z,6.80
2018-04-07T15:55:53.399Z,8.23
2018-04-07T15:58:20.430Z,7.27
2018-04-07T16:00:46.770Z,7.20
2018-04-07T16:03:13.063Z,8.13
2018-04-07T16:05:39.406Z,7.90
2018-04-07T16:08:05.755Z,6.47
2018-04-07T16:10:32.078Z,6.43
2018-04-07T16:12:59.382Z,6.03
2018-04-07T16:15:25.706Z,6.70
2018-04-07T16:17:51.999Z,6.87
2018-04-07T16:20:18.310Z,7.13
2018-04-07T16:22:44.599Z,10.10
2018-04-07T16:25:10.957Z,7.87
2018-04-07T16:27:37.237Z,9.53
2018-04-07T16:30:04.939Z,7.83
2018-04-07T16:32:31.287Z,7.80
2018-04-07T16:34:57.616Z,6.37
2018-04-07T16:37:23.923Z,8.17
2018-04-07T16:39:50.214Z,7.43
2018-04-07T16:42:17.276Z,8.27
2018-04-07T16:44:44.314Z,7.40
2018-04-07T16:47:11.361Z,7.60
2018-04-07T16:49:38.398Z,7.57
2018-04-07T16:52:05.435Z,8.67
2018-04-07T16:54:31.787Z,7.77
2018-04-07T16:56:58.806Z,7.60
2018-04-07T16:59:25.099Z,8.23
2018-04-07T17:01:51.370Z,10.40
2018-04-07T17:04:17.659Z,9.00
2018-04-07T17:06:43.962Z,10.53
2018-04-07T17:09:11.035Z,8.83
2018-04-07T17:11:37.338Z,9.00
2018-04-07T17:14:04.399Z,7.07
2018-04-07T17:16:31.411Z,7.40
2018-04-07T17:18:57.718Z,8.27
2018-04-07T17:21:24.055Z,8.43
2018-04-07T17:23:50.379Z,9.23
2018-04-07T17:26:16.659Z,7.10
2018-04-07T17:28:43.686Z,7.97
2018-04-07T17:31:10.720Z,9.43
2018-04-07T17:33:37.047Z,10.03
2018-04-07T17:36:03.364Z,7.67
2018-04-07T17:38:29.641Z,11.10
2018-04-07T17:40:56.716Z,6.37
2018-04-07T17:43:22.994Z,9.17
2018-04-07T17:45:49.290Z,8.53
2018-04-07T17:48:15.578Z,8.80
2018-04-07T17:50:42.668Z,7.67
2018-04-07T17:53:08.996Z,7.97
2018-04-07T17:55:35.306Z,6.87
2018-04-07T17:58:01.583Z,8.00
2018-04-07T18:00:27.903Z,8.17
2018-04-07T18:02:54.183Z,6.30
2018-04-07T18:05:21.230Z,7.67
2018-04-07T18:07:48.245Z,6.00
2018-04-07T18:10:14.575Z,6.90
2018-04-07T18:12:41.609Z,10.63
2018-04-07T18:15:07.910Z,8.07
2018-04-07T18:17:34.202Z,7.50
2018-04-07T18:20:01.294Z,7.43
2018-04-07T18:22:27.579Z,8.23
2018-04-07T18:24:54.747Z,10.17
2018-04-07T18:27:20.994Z,8.50
2018-04-07T18:29:47.319Z,11.67
2018-04-07T18:32:13.601Z,8.67
2018-04-07T18:34:39.939Z,8.83
2018-04-07T18:37:06.249Z,10.23
2018-04-07T18:39:32.545Z,6.73
2018-04-07T18:41:58.810Z,7.60
2018-04-07T18:44:25.118Z,8.97
2018-04-07T18:46:52.231Z,8.80
2018-04-07T18:49:19.282Z,8.30
2018-04-07T18:51:46.304Z,13.70
2018-04-07T18:54:12.646Z,11.03
2018-04-07T18:56:39.675Z,8.10
2018-04-07T18:59:06.002Z,9.00
2018-04-07T19:01:32.325Z,8.00
2018-04-07T19:03:58.715Z,10.93
2018-04-07T19:06:25.687Z,9.20
2018-04-07T19:08:53.224Z,9.83
2018-04-07T19:11:19.564Z,8.80
2018-04-07T19:13:45.881Z,11.00
2018-04-07T19:16:12.183Z,9.17
2018-04-07T19:18:38.536Z,13.20
2018-04-07T19:21:05.591Z,13.70
2018-04-07T19:23:31.897Z,8.20
2018-04-07T19:25:58.932Z,8.57
2018-04-07T19:28:26.936Z,10.40
2018-04-07T19:30:53.300Z,9.73
2018-04-07T19:33:19.602Z,7.50
2018-04-07T19:35:45.940Z,9.23
2018-04-07T19:38:12.324Z,6.27
2018-04-07T19:40:39.258Z,10.47
2018-04-07T19:43:05.600Z,5.37
2018-04-07T19:45:31.930Z,6.43
2018-04-07T19:47:58.975Z,7.43
2018-04-07T19:50:25.278Z,8.40
2018-04-07T19:52:51.579Z,8.70
2018-04-07T19:55:17.890Z,11.30
2018-04-07T19:57:44.186Z,7.50
2018-04-07T20:00:10.520Z,8.80
2018-04-07T20:02:36.812Z,8.17
2018-04-07T20:05:03.125Z,10.60
2018-04-07T20:07:29.442Z,10.07
2018-04-07T20:09:55.748Z,9.00
2018-04-07T20:12:22.034Z,8.30
2018-04-07T20:14:48.357Z,8.53
2018-04-07T20:17:14.680Z,8.93
2018-04-07T20:19:41.023Z,7.00
2018-04-07T20:22:07.306Z,8.13
2018-04-07T20:24:34.356Z,9.43
2018-04-07T20:27:04.182Z,10.53
2018-04-07T20:29:30.484Z,9.23
2018-04-07T20:31:56.798Z,8.13
2018-04-07T20:34:23.090Z,10.53
2018-04-07T20:36:49.390Z,7.50
2018-04-07T20:39:16.439Z,9.03
2018-04-07T20:41:43.462Z,9.03
2018-04-07T20:44:09.795Z,7.23
2018-04-07T20:46:36.110Z,8.47
2018-04-07T20:49:02.413Z,8.07
2018-04-07T20:51:28.687Z,7.50
2018-04-07T20:53:55.015Z,8.87
2018-04-07T20:56:21.322Z,8.00
2018-04-07T20:58:47.635Z,9.77
2018-04-07T21:01:13.921Z,6.97
2018-04-07T21:03:40.987Z,9.43
2018-04-07T21:06:08.042Z,7.33
2018-04-07T21:08:34.399Z,8.60
2018-04-07T21:11:00.723Z,9.80
2018-04-07T21:13:27.022Z,8.07
2018-04-07T21:15:53.343Z,8.53
2018-04-07T21:18:20.366Z,9.90
2018-04-07T21:20:46.695Z,7.93
2018-04-07T21:23:12.982Z,9.77
2018-04-07T21:25:39.281Z,9.40
2018-04-07T21:28:07.310Z,9.20
2018-04-07T21:30:33.643Z,11.50
2018-04-07T21:32:59.928Z,8.33
2018-04-07T21:35:26.259Z,10.17
2018-04-07T21:37:52.570Z,8.40
2018-04-07T21:40:19.626Z,8.27
2018-04-07T21:42:46.652Z,8.90
2018-04-07T21:45:12.946Z,13.97
2018-04-07T21:47:39.243Z,8.50
2018-04-07T21:50:05.544Z,8.63
2018-04-07T21:52:31.878Z,10.60
2018-04-07T21:54:59.966Z,10.60
2018-04-07T21:57:26.988Z,10.83
2018-04-07T21:59:54.063Z,10.27
2018-04-07T22:02:22.111Z,9.90
2018-04-07T22:04:48.599Z,11.17
2018-04-07T22:07:14.898Z,9.73
2018-04-07T22:09:41.961Z,11.13
2018-04-07T22:12:08.309Z,9.80
2018-04-07T22:14:34.610Z,10.20
2018-04-07T22:17:00.916Z,10.00
2018-04-07T22:19:27.955Z,10.60
2018-04-07T22:21:55.023Z,9.83
2018-04-07T22:24:22.174Z,9.50
2018-04-07T22:26:49.189Z,11.57
2018-04-07T22:29:15.489Z,10.13
2018-04-07T22:31:41.869Z,13.07
2018-04-07T22:34:09.318Z,10.47
2018-04-07T22:36:35.622Z,16.70
2018-04-07T22:39:01.936Z,11.40
2018-04-07T22:41:29.140Z,12.00
2018-04-07T22:43:58.800Z,11.87
2018-04-07T22:46:25.829Z,11.07
2018-04-07T22:48:52.135Z,10.73
2018-04-07T22:51:18.466Z,11.87
2018-04-07T22:53:44.744Z,10.23
2018-04-07T22:56:11.113Z,14.40
2018-04-07T22:58:37.446Z,13.00
2018-04-07T23:01:03.758Z,13.80
2018-04-07T23:03:32.055Z,11.60
2018-04-07T23:05:58.338Z,13.07
2018-04-07T23:08:25.394Z,11.97
2018-04-07T23:10:51.699Z,12.85
2018-04-07T23:13:18.781Z,13.83
2018-04-07T23:15:45.814Z,16.12
2018-04-07T23:18:12.090Z,13.35
2018-04-07T23:20:38.390Z,13.32
2018-04-07T23:23:06.613Z,12.48
2018-04-07T23:25:32.922Z,12.68
2018-04-07T23:27:59.251Z,12.90
2018-04-07T23:30:25.566Z,11.12
2018-04-07T23:32:51.902Z,16.52
2018-04-07T23:35:18.198Z,16.48
2018-04-07T23:37:44.530Z,13.15
2018-04-07T23:40:10.815Z,11.95
2018-04-07T23:42:37.846Z,11.15
2018-04-07T23:45:04.170Z,11.55
2018-04-07T23:47:30.458Z,10.77
2018-04-07T23:49:57.510Z,14.87
2018-04-07T23:52:23.796Z,14.75
2018-04-07T23:54:50.099Z,11.25
2018-04-07T23:57:16.467Z,11.98
2018-04-07T23:59:42.755Z,12.82
